sensor_id;sensor_type;location;lat;lon;timestamp;pressure;altitude;pressure_sealevel;temperature;humidity
72587;BME280;60621;49.576;11.024;2022-09-13T00:00:10;98076.19;;;13.70;78.42
72587;BME280;60621;49.576;11.024;2022-09-13T00:01:11;98076.94;;;13.60;78.77
72587;BME280;60621;49.576;11.024;2022-09-13T00:02:13;98068.63;;;13.47;79.14
72587;BME280;60621;49.576;11.024;2022-09-13T00:03:15;98072.03;;;13.44;79.59
72587;BME280;60621;49.576;11.024;2022-09-13T00:04:16;98070.88;;;13.38;79.50
72587;BME280;60621;49.576;11.024;2022-09-13T00:05:18;98064.06;;;13.37;79.89
72587;BME280;60621;49.576;11.024;2022-09-13T00:06:20;98067.50;;;13.34;79.53
72587;BME280;60621;49.576;11.024;2022-09-13T00:07:22;98070.50;;;13.32;79.73
72587;BME280;60621;49.576;11.024;2022-09-13T00:08:23;98069.00;;;13.53;79.45
72587;BME280;60621;49.576;11.024;2022-09-13T00:09:25;98066.34;;;13.64;78.46
72587;BME280;60621;49.576;11.024;2022-09-13T00:10:26;98075.06;;;13.78;77.97
72587;BME280;60621;49.576;11.024;2022-09-13T00:11:29;98068.97;;;13.92;76.91
72587;BME280;60621;49.576;11.024;2022-09-13T00:12:31;98062.13;;;13.98;76.33
72587;BME280;60621;49.576;11.024;2022-09-13T00:13:33;98056.84;;;14.02;75.90
72587;BME280;60621;49.576;11.024;2022-09-13T00:14:34;98065.94;;;13.97;75.91
72587;BME280;60621;49.576;11.024;2022-09-13T00:15:40;98063.28;;;13.94;76.31
72587;BME280;60621;49.576;11.024;2022-09-13T00:16:45;98059.88;;;13.93;76.10
72587;BME280;60621;49.576;11.024;2022-09-13T00:17:47;98066.72;;;13.83;76.39
72587;BME280;60621;49.576;11.024;2022-09-13T00:18:50;98061.44;;;13.69;76.74
72587;BME280;60621;49.576;11.024;2022-09-13T00:19:51;98063.31;;;13.65;77.21
72587;BME280;60621;49.576;11.024;2022-09-13T00:21:06;98055.00;;;13.56;77.27
72587;BME280;60621;49.576;11.024;2022-09-13T00:22:08;98058.03;;;13.58;77.53
72587;BME280;60621;49.576;11.024;2022-09-13T00:23:10;98056.88;;;13.70;76.67
72587;BME280;60621;49.576;11.024;2022-09-13T00:24:11;98051.97;;;13.68;76.41
72587;BME280;60621;49.576;11.024;2022-09-13T00:25:13;98054.22;;;13.55;76.50
72587;BME280;60621;49.576;11.024;2022-09-13T00:26:26;98058.03;;;13.40;77.28
72587;BME280;60621;49.576;11.024;2022-09-13T00:27:28;98055.34;;;13.33;77.90
72587;BME280;60621;49.576;11.024;2022-09-13T00:28:29;98049.66;;;13.20;78.29
72587;BME280;60621;49.576;11.024;2022-09-13T00:29:31;98046.66;;;13.25;78.50
72587;BME280;60621;49.576;11.024;2022-09-13T00:30:33;98049.69;;;13.35;77.96
72587;BME280;60621;49.576;11.024;2022-09-13T00:31:35;98047.81;;;13.35;77.79
72587;BME280;60621;49.576;11.024;2022-09-13T00:32:36;98053.47;;;13.30;77.84
72587;BME280;60621;49.576;11.024;2022-09-13T00:33:38;98052.72;;;13.22;78.46
72587;BME280;60621;49.576;11.024;2022-09-13T00:34:39;98044.38;;;13.27;78.05
72587;BME280;60621;49.576;11.024;2022-09-13T00:35:41;98046.66;;;13.36;77.52
72587;BME280;60621;49.576;11.024;2022-09-13T00:36:42;98047.03;;;13.42;76.92
72587;BME280;60621;49.576;11.024;2022-09-13T00:37:44;98040.97;;;13.23;78.03
72587;BME280;60621;49.576;11.024;2022-09-13T00:38:46;98043.22;;;13.18;78.66
72587;BME280;60621;49.576;11.024;2022-09-13T00:39:48;98041.69;;;13.06;78.63
72587;BME280;60621;49.576;11.024;2022-09-13T00:40:50;98038.25;;;12.95;78.97
72587;BME280;60621;49.576;11.024;2022-09-13T00:41:52;98035.97;;;12.90;79.63
72587;BME280;60621;49.576;11.024;2022-09-13T00:42:54;98030.72;;;12.97;78.92
72587;BME280;60621;49.576;11.024;2022-09-13T00:43:58;98032.25;;;13.01;78.99
72587;BME280;60621;49.576;11.024;2022-09-13T00:46:14;98035.63;;;12.95;79.49
72587;BME280;60621;49.576;11.024;2022-09-13T00:47:21;98031.84;;;12.99;79.26
72587;BME280;60621;49.576;11.024;2022-09-13T00:48:24;98032.25;;;13.01;78.77
72587;BME280;60621;49.576;11.024;2022-09-13T00:49:37;98031.84;;;13.14;78.63
72587;BME280;60621;49.576;11.024;2022-09-13T00:50:44;98034.88;;;13.12;77.77
72587;BME280;60621;49.576;11.024;2022-09-13T00:51:53;98029.97;;;13.03;78.42
72587;BME280;60621;49.576;11.024;2022-09-13T00:53:17;98035.97;;;12.90;78.94
72587;BME280;60621;49.576;11.024;2022-09-13T00:54:23;98043.53;;;12.80;79.80
72587;BME280;60621;49.576;11.024;2022-09-13T00:55:30;98038.63;;;12.79;79.38
72587;BME280;60621;49.576;11.024;2022-09-13T00:56:42;98045.41;;;12.80;79.16
72587;BME280;60621;49.576;11.024;2022-09-13T00:57:45;98037.47;;;12.76;80.01
72587;BME280;60621;49.576;11.024;2022-09-13T00:59:15;98037.50;;;12.84;79.86
72587;BME280;60621;49.576;11.024;2022-09-13T01:00:20;98039.38;;;12.90;79.62
72587;BME280;60621;49.576;11.024;2022-09-13T01:01:25;98029.97;;;13.03;79.37
72587;BME280;60621;49.576;11.024;2022-09-13T01:02:29;98035.28;;;13.18;77.85
72587;BME280;60621;49.576;11.024;2022-09-13T01:03:33;98034.91;;;13.33;77.13
72587;BME280;60621;49.576;11.024;2022-09-13T01:04:36;98035.69;;;13.34;76.47
72587;BME280;60621;49.576;11.024;2022-09-13T01:05:43;98037.94;;;13.28;76.19
72587;BME280;60621;49.576;11.024;2022-09-13T01:06:46;98043.63;;;13.20;77.15
72587;BME280;60621;49.576;11.024;2022-09-13T01:07:50;98039.06;;;13.20;77.03
72587;BME280;60621;49.576;11.024;2022-09-13T01:08:52;98037.16;;;13.14;77.89
72587;BME280;60621;49.576;11.024;2022-09-13T01:09:54;98038.31;;;13.20;77.24
72587;BME280;60621;49.576;11.024;2022-09-13T01:10:57;98038.31;;;13.23;77.15
72587;BME280;60621;49.576;11.024;2022-09-13T01:12:07;98037.56;;;13.33;76.45
72587;BME280;60621;49.576;11.024;2022-09-13T01:13:15;98039.06;;;13.17;76.75
72587;BME280;60621;49.576;11.024;2022-09-13T01:14:19;98044.38;;;13.24;76.56
72587;BME280;60621;49.576;11.024;2022-09-13T01:15:21;98038.72;;;13.25;76.46
72587;BME280;60621;49.576;11.024;2022-09-13T01:16:24;98036.44;;;13.24;76.50
72587;BME280;60621;49.576;11.024;2022-09-13T01:17:28;98042.13;;;13.22;76.58
72587;BME280;60621;49.576;11.024;2022-09-13T01:18:30;98040.63;;;13.25;76.05
72587;BME280;60621;49.576;11.024;2022-09-13T01:19:32;98039.81;;;13.17;76.81
72587;BME280;60621;49.576;11.024;2022-09-13T01:20:53;98035.31;;;13.28;76.16
72587;BME280;60621;49.576;11.024;2022-09-13T01:24:55;98024.72;;;13.39;75.47
72587;BME280;60621;49.576;11.024;2022-09-13T01:29:04;98026.22;;;13.37;74.83
72587;BME280;60621;49.576;11.024;2022-09-13T01:34:32;98024.28;;;12.98;76.50
72587;BME280;60621;49.576;11.024;2022-09-13T01:45:49;98018.94;;;12.76;77.62
72587;BME280;60621;49.576;11.024;2022-09-13T01:48:24;98022.75;;;12.82;76.33
72587;BME280;60621;49.576;11.024;2022-09-13T01:49:36;98025.38;;;12.79;77.36
72587;BME280;60621;49.576;11.024;2022-09-13T01:50:55;98027.63;;;12.70;77.45
72587;BME280;60621;49.576;11.024;2022-09-13T01:52:01;98027.97;;;12.61;77.90
72587;BME280;60621;49.576;11.024;2022-09-13T01:53:32;98023.44;;;12.54;77.88
72587;BME280;60621;49.576;11.024;2022-09-13T01:55:51;98017.03;;;12.59;77.42
72587;BME280;60621;49.576;11.024;2022-09-13T01:58:39;98018.13;;;12.54;77.68
72587;BME280;60621;49.576;11.024;2022-09-13T01:59:49;98018.88;;;12.51;77.89
72587;BME280;60621;49.576;11.024;2022-09-13T02:01:05;98013.16;;;12.42;78.38
72587;BME280;60621;49.576;11.024;2022-09-13T02:02:15;98022.97;;;12.35;79.08
72587;BME280;60621;49.576;11.024;2022-09-13T02:04:12;98016.91;;;12.34;79.27
72587;BME280;60621;49.576;11.024;2022-09-13T02:04:54;98021.03;;;12.21;80.47
72587;BME280;60621;49.576;11.024;2022-09-13T02:06:07;98024.78;;;12.20;80.07
72587;BME280;60621;49.576;11.024;2022-09-13T02:07:18;98020.59;;;12.08;79.91
72587;BME280;60621;49.576;11.024;2022-09-13T02:09:01;98022.56;;;12.25;79.43
72587;BME280;60621;49.576;11.024;2022-09-13T02:10:04;98017.69;;;12.38;78.90
72587;BME280;60621;49.576;11.024;2022-09-13T02:11:12;98011.34;;;12.53;78.20
72587;BME280;60621;49.576;11.024;2022-09-13T02:12:25;98012.88;;;12.76;76.67
72587;BME280;60621;49.576;11.024;2022-09-13T02:13:34;98006.50;;;12.88;76.21
72587;BME280;60621;49.576;11.024;2022-09-13T02:14:39;98004.59;;;12.88;75.52
72587;BME280;60621;49.576;11.024;2022-09-13T02:15:46;97998.53;;;12.73;76.39
72587;BME280;60621;49.576;11.024;2022-09-13T02:17:05;98001.53;;;12.75;76.34
72587;BME280;60621;49.576;11.024;2022-09-13T02:18:27;97999.97;;;12.53;77.23
72587;BME280;60621;49.576;11.024;2022-09-13T02:19:35;97992.81;;;12.61;77.38
72587;BME280;60621;49.576;11.024;2022-09-13T02:20:42;97984.91;;;12.64;76.41
72587;BME280;60621;49.576;11.024;2022-09-13T02:21:48;97993.97;;;12.70;76.76
72587;BME280;60621;49.576;11.024;2022-09-13T02:22:55;97999.28;;;12.70;76.05
72587;BME280;60621;49.576;11.024;2022-09-13T02:24:06;98003.78;;;12.55;76.57
72587;BME280;60621;49.576;11.024;2022-09-13T02:25:12;97994.31;;;12.44;77.82
72587;BME280;60621;49.576;11.024;2022-09-13T02:26:14;97994.22;;;12.29;78.33
72587;BME280;60621;49.576;11.024;2022-09-13T02:27:23;97991.59;;;12.26;78.99
72587;BME280;60621;49.576;11.024;2022-09-13T02:28:32;97996.50;;;12.27;78.84
72587;BME280;60621;49.576;11.024;2022-09-13T02:29:37;97997.66;;;12.34;78.54
72587;BME280;60621;49.576;11.024;2022-09-13T02:30:43;97991.25;;;12.35;77.96
72587;BME280;60621;49.576;11.024;2022-09-13T02:31:53;97979.94;;;12.45;78.33
72587;BME280;60621;49.576;11.024;2022-09-13T02:33:00;97982.56;;;12.48;77.83
72587;BME280;60621;49.576;11.024;2022-09-13T02:34:10;97981.47;;;12.56;77.28
72587;BME280;60621;49.576;11.024;2022-09-13T02:35:34;97978.47;;;12.58;76.73
72587;BME280;60621;49.576;11.024;2022-09-13T02:36:38;97978.81;;;12.46;77.03
72587;BME280;60621;49.576;11.024;2022-09-13T02:37:44;97981.03;;;12.37;77.61
72587;BME280;60621;49.576;11.024;2022-09-13T02:38:59;97977.25;;;12.30;78.02
72587;BME280;60621;49.576;11.024;2022-09-13T02:40:08;97974.22;;;12.25;78.10
72587;BME280;60621;49.576;11.024;2022-09-13T02:41:22;97973.47;;;12.32;78.23
72587;BME280;60621;49.576;11.024;2022-09-13T02:42:51;97972.72;;;12.35;77.63
72587;BME280;60621;49.576;11.024;2022-09-13T02:44:00;97970.88;;;12.46;77.03
72587;BME280;60621;49.576;11.024;2022-09-13T02:45:05;97966.72;;;12.45;77.17
72587;BME280;60621;49.576;11.024;2022-09-13T02:47:41;97971.59;;;12.43;76.54
72587;BME280;60621;49.576;11.024;2022-09-13T02:48:51;97967.84;;;12.40;77.25
72587;BME280;60621;49.576;11.024;2022-09-13T02:51:21;97974.25;;;12.39;77.64
72587;BME280;60621;49.576;11.024;2022-09-13T02:52:48;97967.09;;;12.50;77.21
72587;BME280;60621;49.576;11.024;2022-09-13T02:54:30;97971.66;;;12.64;76.65
72587;BME280;60621;49.576;11.024;2022-09-13T02:55:47;97970.16;;;12.70;75.52
72587;BME280;60621;49.576;11.024;2022-09-13T02:58:11;97965.59;;;12.60;75.06
72587;BME280;60621;49.576;11.024;2022-09-13T02:59:18;97962.13;;;12.27;76.99
72587;BME280;60621;49.576;11.024;2022-09-13T03:00:20;97952.63;;;12.12;77.64
72587;BME280;60621;49.576;11.024;2022-09-13T03:01:22;97951.84;;;12.08;77.76
72587;BME280;60621;49.576;11.024;2022-09-13T03:02:28;97948.06;;;12.09;78.06
72587;BME280;60621;49.576;11.024;2022-09-13T03:03:32;97949.56;;;12.03;77.92
72587;BME280;60621;49.576;11.024;2022-09-13T03:04:34;97950.28;;;12.00;78.44
72587;BME280;60621;49.576;11.024;2022-09-13T03:05:36;97957.81;;;11.87;79.09
72587;BME280;60621;49.576;11.024;2022-09-13T03:06:39;97950.22;;;11.86;79.73
72587;BME280;60621;49.576;11.024;2022-09-13T03:07:40;97958.16;;;11.86;79.53
72587;BME280;60621;49.576;11.024;2022-09-13T03:08:42;97952.16;;;11.92;79.51
72587;BME280;60621;49.576;11.024;2022-09-13T03:10:05;97952.56;;;11.98;79.04
72587;BME280;60621;49.576;11.024;2022-09-13T03:11:14;97955.97;;;11.98;78.90
72587;BME280;60621;49.576;11.024;2022-09-13T03:19:52;97965.13;;;12.22;77.04
72587;BME280;60621;49.576;11.024;2022-09-13T03:22:38;97959.47;;;12.27;78.02
72587;BME280;60621;49.576;11.024;2022-09-13T03:23:53;97956.47;;;12.33;76.98
72587;BME280;60621;49.576;11.024;2022-09-13T03:27:08;97962.50;;;12.33;76.82
72587;BME280;60621;49.576;11.024;2022-09-13T03:30:33;97953.75;;;12.11;77.90
72587;BME280;60621;49.576;11.024;2022-09-13T03:31:48;97957.91;;;12.12;77.58
72587;BME280;60621;49.576;11.024;2022-09-13T03:33:03;97949.97;;;12.09;78.52
72587;BME280;60621;49.576;11.024;2022-09-13T03:34:15;97956.75;;;12.06;77.98
72587;BME280;60621;49.576;11.024;2022-09-13T03:35:36;97947.22;;;11.91;78.76
72587;BME280;60621;49.576;11.024;2022-09-13T03:36:53;97949.53;;;11.96;79.15
72587;BME280;60621;49.576;11.024;2022-09-13T03:38:18;97951.41;;;11.95;78.43
72587;BME280;60621;49.576;11.024;2022-09-13T03:39:42;97954.75;;;11.85;78.66
72587;BME280;60621;49.576;11.024;2022-09-13T03:40:52;97951.75;;;11.83;78.68
72587;BME280;60621;49.576;11.024;2022-09-13T03:41:56;97954.34;;;11.79;79.08
72587;BME280;60621;49.576;11.024;2022-09-13T03:44:14;97946.13;;;11.92;79.16
72587;BME280;60621;49.576;11.024;2022-09-13T03:45:21;97961.13;;;11.80;78.96
72587;BME280;60621;49.576;11.024;2022-09-13T03:46:28;97947.22;;;11.84;79.23
72587;BME280;60621;49.576;11.024;2022-09-13T03:47:33;97952.81;;;11.75;79.28
72587;BME280;60621;49.576;11.024;2022-09-13T03:48:38;97955.91;;;11.84;79.23
72587;BME280;60621;49.576;11.024;2022-09-13T03:49:41;97955.84;;;11.80;78.78
72587;BME280;60621;49.576;11.024;2022-09-13T03:50:45;97957.72;;;11.73;79.24
72587;BME280;60621;49.576;11.024;2022-09-13T03:51:48;97961.47;;;11.75;79.68
72587;BME280;60621;49.576;11.024;2022-09-13T03:52:55;97962.63;;;11.74;79.80
72587;BME280;60621;49.576;11.024;2022-09-13T03:54:02;97957.31;;;11.71;80.19
72587;BME280;60621;49.576;11.024;2022-09-13T03:55:05;97953.66;;;11.90;79.77
72587;BME280;60621;49.576;11.024;2022-09-13T03:56:15;97943.94;;;12.12;78.26
72587;BME280;60621;49.576;11.024;2022-09-13T03:57:19;97946.59;;;12.19;77.19
72587;BME280;60621;49.576;11.024;2022-09-13T03:58:23;97946.91;;;11.99;77.77
72587;BME280;60621;49.576;11.024;2022-09-13T03:59:26;97941.94;;;11.87;78.83
72587;BME280;60621;49.576;11.024;2022-09-13T04:00:27;97936.59;;;11.80;79.01
72587;BME280;60621;49.576;11.024;2022-09-13T04:01:29;97933.16;;;11.69;78.64
72587;BME280;60621;49.576;11.024;2022-09-13T04:02:31;97932.38;;;11.72;78.94
72587;BME280;60621;49.576;11.024;2022-09-13T04:03:33;97933.16;;;11.76;79.06
72587;BME280;60621;49.576;11.024;2022-09-13T04:04:35;97930.56;;;11.79;78.76
72587;BME280;60621;49.576;11.024;2022-09-13T04:05:36;97933.94;;;11.80;79.12
72587;BME280;60621;49.576;11.024;2022-09-13T04:06:38;97929.75;;;11.72;78.75
72587;BME280;60621;49.576;11.024;2022-09-13T04:07:40;97929.72;;;11.65;79.27
72587;BME280;60621;49.576;11.024;2022-09-13T04:08:41;97930.84;;;11.60;79.62
72587;BME280;60621;49.576;11.024;2022-09-13T04:09:44;97939.84;;;11.52;79.76
72587;BME280;60621;49.576;11.024;2022-09-13T04:10:49;97938.28;;;11.47;80.10
72587;BME280;60621;49.576;11.024;2022-09-13T04:11:50;97943.97;;;11.49;80.40
72587;BME280;60621;49.576;11.024;2022-09-13T04:12:53;97936.06;;;11.53;79.89
72587;BME280;60621;49.576;11.024;2022-09-13T04:13:54;97947.38;;;11.53;79.90
72587;BME280;60621;49.576;11.024;2022-09-13T04:14:56;97945.16;;;11.59;79.20
72587;BME280;60621;49.576;11.024;2022-09-13T04:16:02;97944.38;;;11.55;79.80
72587;BME280;60621;49.576;11.024;2022-09-13T04:17:04;97948.53;;;11.56;79.64
72587;BME280;60621;49.576;11.024;2022-09-13T04:18:05;97938.34;;;11.54;79.91
72587;BME280;60621;49.576;11.024;2022-09-13T04:19:07;97941.03;;;11.65;79.51
72587;BME280;60621;49.576;11.024;2022-09-13T04:20:09;97947.97;;;11.84;78.20
72587;BME280;60621;49.576;11.024;2022-09-13T04:21:11;97942.59;;;11.73;78.20
72587;BME280;60621;49.576;11.024;2022-09-13T04:22:13;97948.66;;;11.74;78.81
72587;BME280;60621;49.576;11.024;2022-09-13T04:23:15;97952.41;;;11.69;79.28
72587;BME280;60621;49.576;11.024;2022-09-13T04:24:16;97948.63;;;11.70;79.34
72587;BME280;60621;49.576;11.024;2022-09-13T04:25:19;97958.81;;;11.68;80.07
72587;BME280;60621;49.576;11.024;2022-09-13T04:26:21;97956.53;;;11.67;79.25
72587;BME280;60621;49.576;11.024;2022-09-13T04:27:22;97962.13;;;11.58;80.16
72587;BME280;60621;49.576;11.024;2022-09-13T04:28:24;97963.63;;;11.56;80.05
72587;BME280;60621;49.576;11.024;2022-09-13T04:29:25;97954.63;;;11.64;80.06
72587;BME280;60621;49.576;11.024;2022-09-13T04:30:27;97957.34;;;11.78;79.66
72587;BME280;60621;49.576;11.024;2022-09-13T04:31:29;97951.00;;;11.90;78.77
72587;BME280;60621;49.576;11.024;2022-09-13T04:32:31;97951.38;;;11.88;78.96
72587;BME280;60621;49.576;11.024;2022-09-13T04:33:33;97946.06;;;11.85;78.88
72587;BME280;60621;49.576;11.024;2022-09-13T04:34:35;97944.56;;;11.84;78.68
72587;BME280;60621;49.576;11.024;2022-09-13T04:35:37;97949.03;;;11.79;78.59
72587;BME280;60621;49.576;11.024;2022-09-13T04:36:42;97953.56;;;11.75;78.82
72587;BME280;60621;49.576;11.024;2022-09-13T04:37:43;97955.06;;;11.73;79.31
72587;BME280;60621;49.576;11.024;2022-09-13T04:38:45;97967.88;;;11.71;79.02
72587;BME280;60621;49.576;11.024;2022-09-13T04:39:47;97974.22;;;11.63;79.51
72587;BME280;60621;49.576;11.024;2022-09-13T04:40:53;97974.56;;;11.58;80.19
72587;BME280;60621;49.576;11.024;2022-09-13T04:41:54;97983.59;;;11.53;80.01
72587;BME280;60621;49.576;11.024;2022-09-13T04:42:56;97973.41;;;11.51;80.25
72587;BME280;60621;49.576;11.024;2022-09-13T04:43:58;97975.69;;;11.53;80.82
72587;BME280;60621;49.576;11.024;2022-09-13T04:45:00;97979.88;;;11.54;80.62
72587;BME280;60621;49.576;11.024;2022-09-13T04:46:01;97969.28;;;11.54;81.02
72587;BME280;60621;49.576;11.024;2022-09-13T04:47:03;97969.72;;;11.60;80.50
72587;BME280;60621;49.576;11.024;2022-09-13T04:48:04;97970.50;;;11.71;80.29
72587;BME280;60621;49.576;11.024;2022-09-13T04:49:06;97974.72;;;11.79;79.71
72587;BME280;60621;49.576;11.024;2022-09-13T04:50:09;97970.50;;;11.67;79.56
72587;BME280;60621;49.576;11.024;2022-09-13T04:51:11;97972.25;;;11.45;80.23
72587;BME280;60621;49.576;11.024;2022-09-13T04:52:13;97974.78;;;11.31;80.48
72587;BME280;60621;49.576;11.024;2022-09-13T04:53:14;97977.31;;;11.17;81.19
72587;BME280;60621;49.576;11.024;2022-09-13T04:54:16;97970.94;;;11.21;81.16
72587;BME280;60621;49.576;11.024;2022-09-13T04:55:17;97971.19;;;11.06;82.29
72587;BME280;60621;49.576;11.024;2022-09-13T04:56:19;97973.84;;;11.09;82.59
72587;BME280;60621;49.576;11.024;2022-09-13T04:57:21;97971.09;;;10.95;82.53
72587;BME280;60621;49.576;11.024;2022-09-13T04:58:22;97965.16;;;11.05;82.42
72587;BME280;60621;49.576;11.024;2022-09-13T04:59:24;97971.59;;;11.08;82.37
72587;BME280;60621;49.576;11.024;2022-09-13T05:00:25;97973.84;;;11.09;81.91
72587;BME280;60621;49.576;11.024;2022-09-13T05:01:28;97965.56;;;11.11;82.21
72587;BME280;60621;49.576;11.024;2022-09-13T05:02:29;97964.53;;;11.22;81.64
72587;BME280;60621;49.576;11.024;2022-09-13T05:03:32;97969.09;;;11.29;81.07
72587;BME280;60621;49.576;11.024;2022-09-13T05:04:34;97969.16;;;11.36;81.17
72587;BME280;60621;49.576;11.024;2022-09-13T05:05:35;97968.81;;;11.41;81.21
72587;BME280;60621;49.576;11.024;2022-09-13T05:06:37;97971.84;;;11.43;80.50
72587;BME280;60621;49.576;11.024;2022-09-13T05:07:39;97975.63;;;11.42;80.84
72587;BME280;60621;49.576;11.024;2022-09-13T05:08:40;97960.94;;;11.48;80.36
72587;BME280;60621;49.576;11.024;2022-09-13T05:09:41;97964.03;;;11.61;79.57
72587;BME280;60621;49.576;11.024;2022-09-13T05:10:45;97956.56;;;11.70;79.24
72587;BME280;60621;49.576;11.024;2022-09-13T05:11:47;97958.56;;;11.88;78.50
72587;BME280;60621;49.576;11.024;2022-09-13T05:12:49;97949.94;;;12.01;77.81
72587;BME280;60621;49.576;11.024;2022-09-13T05:13:51;97950.31;;;12.03;77.44
72587;BME280;60621;49.576;11.024;2022-09-13T05:14:55;97948.47;;;12.15;76.83
72587;BME280;60621;49.576;11.024;2022-09-13T05:15:58;97951.91;;;12.22;76.37
72587;BME280;60621;49.576;11.024;2022-09-13T05:17:00;97952.66;;;12.23;76.29
72587;BME280;60621;49.576;11.024;2022-09-13T05:18:02;97960.50;;;12.01;77.09
72587;BME280;60621;49.576;11.024;2022-09-13T05:19:03;97957.44;;;11.89;77.95
72587;BME280;60621;49.576;11.024;2022-09-13T05:20:05;97970.16;;;11.76;78.77
72587;BME280;60621;49.576;11.024;2022-09-13T05:21:08;97965.97;;;11.71;79.32
72587;BME280;60621;49.576;11.024;2022-09-13T05:22:09;97966.38;;;11.70;79.64
72587;BME280;60621;49.576;11.024;2022-09-13T05:23:11;97972.75;;;11.65;79.70
72587;BME280;60621;49.576;11.024;2022-09-13T05:24:12;97974.28;;;11.70;79.93
72587;BME280;60621;49.576;11.024;2022-09-13T05:25:14;97966.03;;;11.78;79.64
72587;BME280;60621;49.576;11.024;2022-09-13T05:26:16;97969.06;;;11.80;79.79
72587;BME280;60621;49.576;11.024;2022-09-13T05:27:18;97964.97;;;11.87;79.09
72587;BME280;60621;49.576;11.024;2022-09-13T05:28:21;97962.75;;;11.92;79.11
72587;BME280;60621;49.576;11.024;2022-09-13T05:29:23;97961.25;;;11.98;79.00
72587;BME280;60621;49.576;11.024;2022-09-13T05:30:24;97963.50;;;12.00;78.33
72587;BME280;60621;49.576;11.024;2022-09-13T05:31:32;97963.91;;;11.98;78.53
72587;BME280;60621;49.576;11.024;2022-09-13T05:32:34;97964.31;;;12.15;78.15
72587;BME280;60621;49.576;11.024;2022-09-13T05:33:36;97961.34;;;12.23;77.68
72587;BME280;60621;49.576;11.024;2022-09-13T05:34:38;97953.06;;;12.36;77.17
72587;BME280;60621;49.576;11.024;2022-09-13T05:35:40;97958.75;;;12.38;77.28
72587;BME280;60621;49.576;11.024;2022-09-13T05:36:42;97964.78;;;12.35;77.28
72587;BME280;60621;49.576;11.024;2022-09-13T05:37:45;97962.47;;;12.22;78.53
72587;BME280;60621;49.576;11.024;2022-09-13T05:38:47;97953.38;;;12.20;78.68
72587;BME280;60621;49.576;11.024;2022-09-13T05:39:48;97955.34;;;12.30;78.44
72587;BME280;60621;49.576;11.024;2022-09-13T05:41:10;97947.78;;;12.32;78.49
72587;BME280;60621;49.576;11.024;2022-09-13T05:42:11;97950.06;;;12.37;78.55
72587;BME280;60621;49.576;11.024;2022-09-13T05:43:14;97939.50;;;12.44;78.53
72587;BME280;60621;49.576;11.024;2022-09-13T05:44:15;97944.44;;;12.49;78.35
72587;BME280;60621;49.576;11.024;2022-09-13T05:45:17;97941.75;;;12.53;78.38
72587;BME280;60621;49.576;11.024;2022-09-13T05:46:19;97944.81;;;12.66;77.72
72587;BME280;60621;49.576;11.024;2022-09-13T05:47:21;97942.94;;;12.70;77.26
72587;BME280;60621;49.576;11.024;2022-09-13T05:48:23;97946.31;;;12.67;77.61
72587;BME280;60621;49.576;11.024;2022-09-13T05:49:25;97950.84;;;12.63;78.19
72587;BME280;60621;49.576;11.024;2022-09-13T05:50:26;97945.94;;;12.61;77.95
72587;BME280;60621;49.576;11.024;2022-09-13T05:51:48;97953.13;;;12.57;79.08
72587;BME280;60621;49.576;11.024;2022-09-13T05:52:53;97949.75;;;12.64;78.99
72587;BME280;60621;49.576;11.024;2022-09-13T05:53:55;97952.38;;;12.64;79.17
72587;BME280;60621;49.576;11.024;2022-09-13T05:54:57;97945.97;;;12.65;79.05
72587;BME280;60621;49.576;11.024;2022-09-13T05:55:59;97952.78;;;12.69;79.27
72587;BME280;60621;49.576;11.024;2022-09-13T05:57:01;97949.75;;;12.74;79.71
72587;BME280;60621;49.576;11.024;2022-09-13T05:58:02;97964.13;;;12.80;79.25
72587;BME280;60621;49.576;11.024;2022-09-13T05:59:05;97963.75;;;12.86;78.81
72587;BME280;60621;49.576;11.024;2022-09-13T06:00:07;97962.25;;;12.92;79.02
72587;BME280;60621;49.576;11.024;2022-09-13T06:01:10;97969.44;;;12.98;79.38
72587;BME280;60621;49.576;11.024;2022-09-13T06:02:12;97969.81;;;13.04;79.27
72587;BME280;60621;49.576;11.024;2022-09-13T06:03:13;97974.72;;;13.09;79.30
72587;BME280;60621;49.576;11.024;2022-09-13T06:04:15;97972.09;;;13.13;79.01
72587;BME280;60621;49.576;11.024;2022-09-13T06:05:17;97974.34;;;13.18;79.04
72587;BME280;60621;49.576;11.024;2022-09-13T06:06:19;97973.25;;;13.22;79.08
72587;BME280;60621;49.576;11.024;2022-09-13T06:07:20;97967.22;;;13.25;79.32
72587;BME280;60621;49.576;11.024;2022-09-13T06:08:23;97975.16;;;13.25;79.83
72587;BME280;60621;49.576;11.024;2022-09-13T06:09:25;97967.56;;;13.27;79.56
72587;BME280;60621;49.576;11.024;2022-09-13T06:10:26;97971.72;;;13.32;79.85
72587;BME280;60621;49.576;11.024;2022-09-13T06:11:28;97975.13;;;13.32;79.51
72587;BME280;60621;49.576;11.024;2022-09-13T06:12:30;97975.91;;;13.37;79.65
72587;BME280;60621;49.576;11.024;2022-09-13T06:13:32;97975.91;;;13.40;79.37
72587;BME280;60621;49.576;11.024;2022-09-13T06:14:33;97976.25;;;13.42;79.35
72587;BME280;60621;49.576;11.024;2022-09-13T06:15:35;97974.38;;;13.39;79.66
72587;BME280;60621;49.576;11.024;2022-09-13T06:16:42;97973.25;;;13.44;79.98
72587;BME280;60621;49.576;11.024;2022-09-13T06:17:44;97978.91;;;13.46;79.74
72587;BME280;60621;49.576;11.024;2022-09-13T06:18:46;97981.94;;;13.48;79.82
72587;BME280;60621;49.576;11.024;2022-09-13T06:19:48;97990.66;;;13.48;80.20
72587;BME280;60621;49.576;11.024;2022-09-13T06:20:50;97978.13;;;13.52;79.75
72587;BME280;60621;49.576;11.024;2022-09-13T06:21:51;97982.28;;;13.57;80.22
72587;BME280;60621;49.576;11.024;2022-09-13T06:22:53;97986.44;;;13.65;79.91
72587;BME280;60621;49.576;11.024;2022-09-13T06:23:55;97981.16;;;13.69;79.54
72587;BME280;60621;49.576;11.024;2022-09-13T06:25:00;97984.53;;;13.76;79.33
72587;BME280;60621;49.576;11.024;2022-09-13T06:27:04;97992.13;;;13.78;79.80